Skip Navigation Links
NOAA logo - Click to go to the NOAA homepage
NOAA's National Weather Service
Alaska Aviation Weather Unit
  NWS logo - Click to go to the NWS homepage
Left Navbar Graphic     21 AKDT = 05 GMT

   
NOAA is celebrating 200 years of science, service, and stewardship. Visit the NOAA 200th celebration Web site to learn more.
USA.gov is the U.S. Government's official Web portal to all Federal, state and local government Web resources and services.
Facebook
NWS on Facebook

AAWU Home :: Display TAF Add Bookmark
METAR PAIN 262316Z AUTO 36009KT 340V040 10SM FEW041 SCT048 BKN060 08/00
     A2950 RMK AO1=

METAR PAIN 262336Z AUTO 36006KT 10SM SCT041 BKN090 08/00 A2950 RMK
 AO1=

METAR PAIN 262356Z AUTO 36007KT 10SM SCT041 SCT065 08/M01 A2950 RMK AO1
     10080 20030 401001020 57003=

METAR PAIN 270016Z AUTO 01007G15KT 10SM SCT039 BKN050 BKN065 08/00 A2950
     RMK AO1=

METAR PAIN 270036Z AUTO 01009G15KT 10SM SCT040 SCT046 OVC065 08/00 A2950
     RMK AO1=

METAR PAIN 270056Z AUTO 36008G14KT 330V030 10SM OVC065 08/M01 A2950 RMK
     AO1=

METAR PAIN 270116Z AUTO 35009G14KT 10SM OVC065 07/M02 A2950 RMK AO1=

METAR PAIN 270136Z AUTO 36007KT 320V020 10SM BKN065 07/M02 A2949 RMK
     AO1=

METAR PAIN 270156Z AUTO 36007G17KT 10SM SCT065 BKN090 08/M01 A2950
 RMK AO1=

METAR PAIN 270216Z AUTO 36007KT 310V020 10SM FEW090 07/M01 A2950 RMK
     AO1=

METAR PAIN 270236Z AUTO 01008KT 10SM SCT090 07/M01 A2950 RMK AO1=

METAR PAIN 270256Z AUTO 01011G17KT 10SM SCT100 07/M01 A2950 RMK AO1
     54000=

METAR PAIN 270316Z AUTO 01009G17KT 10SM FEW110 07/01 A2950 RMK AO1=

METAR PAIN 270336Z AUTO 36009G15KT 10SM BKN085 06/02 A2950 RMK AO1=

METAR PAIN 270356Z AUTO 36009G15KT 10SM OVC085 06/02 A2950 RMK AO1=

METAR PAIN 270416Z AUTO 01009KT 10SM BKN085 BKN110 06/00 A2951 RMK
 AO1=

METAR PAIN 270436Z AUTO 36009G14KT 10SM SCT090 05/M01 A2951 RMK AO1=

METAR PAIN 270456Z AUTO 36007KT 10SM SCT090 05/M01 A2951 RMK AO1=


NOAA's National Weather Service
Alaska Aviation Weather Unit
6930 Sand Lake Road
Anchorage, AK 99502-1845
Disclaimer
Credits
Glossary
Privacy Policy
About Us
Career Opportunities
Contact AAWU Internet Services Site last modified: April, 17th 2012